sensor_id;sensor_type;location;lat;lon;timestamp;pressure;altitude;pressure_sealevel;temperature;humidity
58757;BME280;44527;47.460;19.016;2023-04-21T00:01:31;100240.78;;;11.79;71.02
58757;BME280;44527;47.460;19.016;2023-04-21T00:04:35;100237.19;;;11.80;71.01
58757;BME280;44527;47.460;19.016;2023-04-21T00:07:37;100235.16;;;11.72;70.72
58757;BME280;44527;47.460;19.016;2023-04-21T00:10:40;100235.16;;;11.72;70.65
58757;BME280;44527;47.460;19.016;2023-04-21T00:13:43;100231.16;;;11.67;71.07
58757;BME280;44527;47.460;19.016;2023-04-21T00:16:45;100226.28;;;11.73;70.02
58757;BME280;44527;47.460;19.016;2023-04-21T00:19:48;100240.84;;;11.66;69.65
58757;BME280;44527;47.460;19.016;2023-04-21T00:22:53;100222.09;;;11.71;69.60
58757;BME280;44527;47.460;19.016;2023-04-21T00:25:56;100232.59;;;11.71;68.19
58757;BME280;44527;47.460;19.016;2023-04-21T00:28:58;100237.25;;;11.67;67.56
58757;BME280;44527;47.460;19.016;2023-04-21T00:32:00;100222.22;;;11.69;68.19
58757;BME280;44527;47.460;19.016;2023-04-21T00:35:05;100225.94;;;11.78;66.35
58757;BME280;44527;47.460;19.016;2023-04-21T00:38:07;100226.81;;;11.79;67.04
58757;BME280;44527;47.460;19.016;2023-04-21T00:41:10;100218.50;;;11.72;67.53
58757;BME280;44527;47.460;19.016;2023-04-21T00:44:13;100231.66;;;11.72;66.89
58757;BME280;44527;47.460;19.016;2023-04-21T00:47:15;100222.22;;;11.69;67.54
58757;BME280;44527;47.460;19.016;2023-04-21T00:50:17;100228.47;;;11.80;66.92
58757;BME280;44527;47.460;19.016;2023-04-21T00:53:20;100229.16;;;11.70;66.46
58757;BME280;44527;47.460;19.016;2023-04-21T00:56:22;100226.00;;;11.65;66.79
58757;BME280;44527;47.460;19.016;2023-04-21T00:59:26;100230.56;;;11.63;67.80
58757;BME280;44527;47.460;19.016;2023-04-21T01:02:31;100226.66;;;11.56;67.22
58757;BME280;44527;47.460;19.016;2023-04-21T01:05:33;100230.56;;;11.50;68.02
58757;BME280;44527;47.460;19.016;2023-04-21T01:08:38;100220.91;;;11.51;68.03
58757;BME280;44527;47.460;19.016;2023-04-21T01:11:41;100223.03;;;11.46;67.85
58757;BME280;44527;47.460;19.016;2023-04-21T01:14:43;100216.94;;;11.45;66.94
58757;BME280;44527;47.460;19.016;2023-04-21T01:17:45;100223.25;;;11.43;68.07
58757;BME280;44527;47.460;19.016;2023-04-21T01:20:48;100225.78;;;11.32;68.48
58757;BME280;44527;47.460;19.016;2023-04-21T01:23:52;100223.28;;;11.30;66.01
58757;BME280;44527;47.460;19.016;2023-04-21T01:26:54;100220.97;;;11.25;67.88
58757;BME280;44527;47.460;19.016;2023-04-21T01:29:57;100224.78;;;11.21;67.13
58757;BME280;44527;47.460;19.016;2023-04-21T01:33:01;100215.09;;;11.22;68.03
58757;BME280;44527;47.460;19.016;2023-04-21T01:36:04;100216.87;;;11.21;68.50
58757;BME280;44527;47.460;19.016;2023-04-21T01:39:06;100215.53;;;11.16;69.06
58757;BME280;44527;47.460;19.016;2023-04-21T01:42:08;100211.03;;;11.18;68.83
58757;BME280;44527;47.460;19.016;2023-04-21T01:45:11;100216.59;;;11.13;68.52
58757;BME280;44527;47.460;19.016;2023-04-21T01:48:13;100213.34;;;11.10;68.88
58757;BME280;44527;47.460;19.016;2023-04-21T01:51:15;100216.09;;;11.08;68.38
58757;BME280;44527;47.460;19.016;2023-04-21T01:54:18;100210.19;;;11.04;69.03
58757;BME280;44527;47.460;19.016;2023-04-21T01:57:20;100213.87;;;11.02;69.50
58757;BME280;44527;47.460;19.016;2023-04-21T02:00:24;100217.56;;;10.99;69.32
58757;BME280;44527;47.460;19.016;2023-04-21T02:03:27;100212.63;;;10.95;69.34
58757;BME280;44527;47.460;19.016;2023-04-21T02:06:30;100211.56;;;10.97;69.00
58757;BME280;44527;47.460;19.016;2023-04-21T02:09:33;100215.88;;;10.98;69.22
58757;BME280;44527;47.460;19.016;2023-04-21T02:12:35;100213.56;;;10.94;68.69
58757;BME280;44527;47.460;19.016;2023-04-21T02:15:38;100218.72;;;10.82;68.99
58757;BME280;44527;47.460;19.016;2023-04-21T02:18:40;100215.78;;;10.87;68.30
58757;BME280;44527;47.460;19.016;2023-04-21T02:21:42;100217.38;;;10.90;68.91
58757;BME280;44527;47.460;19.016;2023-04-21T02:24:45;100215.88;;;10.86;68.79
58757;BME280;44527;47.460;19.016;2023-04-21T02:27:47;100215.25;;;10.82;69.23
58757;BME280;44527;47.460;19.016;2023-04-21T02:30:49;100214.22;;;10.85;68.08
58757;BME280;44527;47.460;19.016;2023-04-21T02:33:52;100220.63;;;10.93;67.74
58757;BME280;44527;47.460;19.016;2023-04-21T02:36:55;100221.25;;;10.84;68.50
58757;BME280;44527;47.460;19.016;2023-04-21T02:39:59;100221.88;;;10.88;67.13
58757;BME280;44527;47.460;19.016;2023-04-21T02:43:02;100222.72;;;10.88;67.42
58757;BME280;44527;47.460;19.016;2023-04-21T02:46:05;100222.94;;;10.85;66.94
58757;BME280;44527;47.460;19.016;2023-04-21T02:49:08;100224.31;;;10.78;67.84
58757;BME280;44527;47.460;19.016;2023-04-21T02:52:11;100218.09;;;10.79;66.98
58757;BME280;44527;47.460;19.016;2023-04-21T02:55:13;100218.94;;;10.79;66.28
58757;BME280;44527;47.460;19.016;2023-04-21T02:58:16;100220.41;;;10.84;65.95
58757;BME280;44527;47.460;19.016;2023-04-21T03:01:19;100217.25;;;10.78;67.00
58757;BME280;44527;47.460;19.016;2023-04-21T03:04:22;100220.94;;;10.76;67.77
58757;BME280;44527;47.460;19.016;2023-04-21T03:07:26;100222.41;;;10.67;65.92
58757;BME280;44527;47.460;19.016;2023-04-21T03:10:28;100223.56;;;10.76;66.28
58757;BME280;44527;47.460;19.016;2023-04-21T03:13:32;100225.03;;;10.67;66.83
58757;BME280;44527;47.460;19.016;2023-04-21T03:16:34;100232.28;;;10.64;66.33
58757;BME280;44527;47.460;19.016;2023-04-21T03:19:37;100225.97;;;10.66;66.37
58757;BME280;44527;47.460;19.016;2023-04-21T03:22:39;100230.69;;;10.74;65.71
58757;BME280;44527;47.460;19.016;2023-04-21T03:25:41;100235.09;;;10.61;67.77
58757;BME280;44527;47.460;19.016;2023-04-21T03:28:44;100230.69;;;10.48;65.86
58757;BME280;44527;47.460;19.016;2023-04-21T03:31:47;100234.47;;;10.57;65.41
58757;BME280;44527;47.460;19.016;2023-04-21T03:34:49;100236.56;;;10.65;64.09
58757;BME280;44527;47.460;19.016;2023-04-21T03:37:52;100230.06;;;10.70;65.13
58757;BME280;44527;47.460;19.016;2023-04-21T03:40:55;100227.84;;;10.77;64.53
58757;BME280;44527;47.460;19.016;2023-04-21T03:43:57;100236.16;;;10.84;64.08
58757;BME280;44527;47.460;19.016;2023-04-21T03:46:59;100227.13;;;11.00;61.85
58757;BME280;44527;47.460;19.016;2023-04-21T03:50:04;100242.88;;;11.00;62.71
58757;BME280;44527;47.460;19.016;2023-04-21T03:53:07;100238.78;;;10.96;62.32
58757;BME280;44527;47.460;19.016;2023-04-21T03:56:09;100243.19;;;11.09;62.03
58757;BME280;44527;47.460;19.016;2023-04-21T03:59:11;100241.28;;;11.23;60.99
58757;BME280;44527;47.460;19.016;2023-04-21T04:02:14;100241.91;;;11.27;61.26
58757;BME280;44527;47.460;19.016;2023-04-21T04:05:16;100249.16;;;11.23;61.50
58757;BME280;44527;47.460;19.016;2023-04-21T04:08:18;100252.41;;;11.27;61.04
58757;BME280;44527;47.460;19.016;2023-04-21T04:11:20;100257.00;;;11.36;61.59
58757;BME280;44527;47.460;19.016;2023-04-21T04:14:23;100258.25;;;11.43;60.63
58757;BME280;44527;47.460;19.016;2023-04-21T04:17:25;100266.12;;;11.43;60.62
58757;BME280;44527;47.460;19.016;2023-04-21T04:20:27;100264.94;;;11.47;60.16
58757;BME280;44527;47.460;19.016;2023-04-21T04:23:30;100272.62;;;11.63;58.95
58757;BME280;44527;47.460;19.016;2023-04-21T04:26:32;100268.97;;;11.77;59.73
58757;BME280;44527;47.460;19.016;2023-04-21T04:29:35;100272.00;;;11.84;59.74
58757;BME280;44527;47.460;19.016;2023-04-21T04:32:37;100269.12;;;12.00;58.93
58757;BME280;44527;47.460;19.016;2023-04-21T04:35:40;100274.28;;;12.01;59.96
58757;BME280;44527;47.460;19.016;2023-04-21T04:38:42;100273.84;;;12.07;59.43
58757;BME280;44527;47.460;19.016;2023-04-21T04:41:45;100280.47;;;12.24;59.18
58757;BME280;44527;47.460;19.016;2023-04-21T04:44:47;100285.78;;;12.35;58.38
58757;BME280;44527;47.460;19.016;2023-04-21T04:47:50;100282.59;;;12.43;60.29
58757;BME280;44527;47.460;19.016;2023-04-21T04:50:52;100288.16;;;12.62;58.68
58757;BME280;44527;47.460;19.016;2023-04-21T04:53:55;100290.91;;;13.41;56.80
58757;BME280;44527;47.460;19.016;2023-04-21T04:56:58;100289.00;;;13.98;54.34
58757;BME280;44527;47.460;19.016;2023-04-21T05:00:00;100281.97;;;14.19;52.34
58757;BME280;44527;47.460;19.016;2023-04-21T05:03:02;100288.63;;;14.88;51.27
58757;BME280;44527;47.460;19.016;2023-04-21T05:06:05;100285.56;;;16.62;46.60
58757;BME280;44527;47.460;19.016;2023-04-21T05:09:07;100291.53;;;18.57;42.73
58757;BME280;44527;47.460;19.016;2023-04-21T05:12:11;100288.59;;;19.89;38.87
58757;BME280;44527;47.460;19.016;2023-04-21T05:15:15;100287.34;;;20.51;37.19
58757;BME280;44527;47.460;19.016;2023-04-21T05:18:18;100289.25;;;21.30;34.42
58757;BME280;44527;47.460;19.016;2023-04-21T05:21:22;100288.50;;;22.15;33.94
58757;BME280;44527;47.460;19.016;2023-04-21T05:24:25;100293.75;;;23.07;32.58
58757;BME280;44527;47.460;19.016;2023-04-21T05:27:40;100296.81;;;23.49;31.40
58757;BME280;44527;47.460;19.016;2023-04-21T05:30:56;100297.72;;;23.56;31.25
58757;BME280;44527;47.460;19.016;2023-04-21T05:34:00;100298.56;;;23.12;31.80
58757;BME280;44527;47.460;19.016;2023-04-21T05:37:10;100294.03;;;22.98;31.63
58757;BME280;44527;47.460;19.016;2023-04-21T07:45:04;100293.28;;;24.64;27.59
58757;BME280;44527;47.460;19.016;2023-04-21T07:48:08;100299.69;;;22.80;29.99
58757;BME280;44527;47.460;19.016;2023-04-21T07:51:10;100297.87;;;22.19;29.72
58757;BME280;44527;47.460;19.016;2023-04-21T07:54:13;100287.94;;;21.97;31.54
58757;BME280;44527;47.460;19.016;2023-04-21T07:57:15;100287.09;;;21.73;33.17
58757;BME280;44527;47.460;19.016;2023-04-21T08:00:18;100285.13;;;21.11;32.02
58757;BME280;44527;47.460;19.016;2023-04-21T08:03:20;100291.19;;;20.24;33.50
58757;BME280;44527;47.460;19.016;2023-04-21T08:06:25;100295.59;;;19.82;33.22
58757;BME280;44527;47.460;19.016;2023-04-21T08:09:30;100288.78;;;19.45;36.80
58757;BME280;44527;47.460;19.016;2023-04-21T08:12:32;100293.97;;;19.55;37.23
58757;BME280;44527;47.460;19.016;2023-04-21T08:15:34;100291.19;;;19.22;34.53
58757;BME280;44527;47.460;19.016;2023-04-21T08:18:36;100293.03;;;18.96;36.42
58757;BME280;44527;47.460;19.016;2023-04-21T08:21:41;100288.41;;;19.06;37.05
58757;BME280;44527;47.460;19.016;2023-04-21T08:24:43;100288.94;;;19.10;34.20
58757;BME280;44527;47.460;19.016;2023-04-21T08:27:47;100283.72;;;19.26;35.88
58757;BME280;44527;47.460;19.016;2023-04-21T08:30:49;100291.22;;;19.31;37.71
58757;BME280;44527;47.460;19.016;2023-04-21T08:33:54;100283.12;;;19.48;35.22
58757;BME280;44527;47.460;19.016;2023-04-21T08:37:03;100276.91;;;19.74;35.50
58757;BME280;44527;47.460;19.016;2023-04-21T08:40:06;100285.97;;;19.55;33.55
58757;BME280;44527;47.460;19.016;2023-04-21T08:43:08;100280.25;;;19.34;33.53
58757;BME280;44527;47.460;19.016;2023-04-21T08:46:10;100282.62;;;19.11;33.18
58757;BME280;44527;47.460;19.016;2023-04-21T08:49:13;100278.59;;;19.06;34.91
58757;BME280;44527;47.460;19.016;2023-04-21T08:52:20;100276.38;;;18.94;34.14
58757;BME280;44527;47.460;19.016;2023-04-21T08:55:27;100281.19;;;18.90;34.75
58757;BME280;44527;47.460;19.016;2023-04-21T08:58:32;100281.19;;;19.16;34.62
58757;BME280;44527;47.460;19.016;2023-04-21T09:02:03;100273.28;;;19.06;33.91
58757;BME280;44527;47.460;19.016;2023-04-21T09:04:56;100281.50;;;19.13;33.19
58757;BME280;44527;47.460;19.016;2023-04-21T09:08:12;100281.00;;;19.18;36.46
58757;BME280;44527;47.460;19.016;2023-04-21T09:11:14;100275.69;;;19.18;33.31
58757;BME280;44527;47.460;19.016;2023-04-21T09:14:18;100270.16;;;19.45;34.55
58757;BME280;44527;47.460;19.016;2023-04-21T09:17:21;100275.00;;;19.58;32.79
58757;BME280;44527;47.460;19.016;2023-04-21T09:20:24;100260.31;;;19.88;35.17
58757;BME280;44527;47.460;19.016;2023-04-21T09:23:26;100263.53;;;20.08;32.68
58757;BME280;44527;47.460;19.016;2023-04-21T09:26:28;100266.41;;;19.64;32.98
58757;BME280;44527;47.460;19.016;2023-04-21T09:29:31;100267.75;;;19.34;33.05
58757;BME280;44527;47.460;19.016;2023-04-21T09:32:37;100258.44;;;19.64;35.86
58757;BME280;44527;47.460;19.016;2023-04-21T09:35:40;100250.09;;;19.59;36.37
58757;BME280;44527;47.460;19.016;2023-04-21T09:38:42;100255.47;;;19.33;34.09
58757;BME280;44527;47.460;19.016;2023-04-21T09:41:47;100236.44;;;19.62;33.24
58757;BME280;44527;47.460;19.016;2023-04-21T09:44:49;100237.69;;;20.01;35.29
58757;BME280;44527;47.460;19.016;2023-04-21T09:48:11;100243.53;;;20.29;32.90
58757;BME280;44527;47.460;19.016;2023-04-21T09:51:15;100225.53;;;20.72;34.81
58757;BME280;44527;47.460;19.016;2023-04-21T09:54:21;100239.12;;;21.01;33.99
58757;BME280;44527;47.460;19.016;2023-04-21T09:57:31;100232.94;;;21.09;31.68
58757;BME280;44527;47.460;19.016;2023-04-21T10:00:33;100225.19;;;20.83;32.50
58757;BME280;44527;47.460;19.016;2023-04-21T10:03:40;100237.06;;;21.20;34.15
58757;BME280;44527;47.460;19.016;2023-04-21T10:06:46;100222.34;;;21.40;30.41
58757;BME280;44527;47.460;19.016;2023-04-21T10:09:55;100233.31;;;21.76;30.85
58757;BME280;44527;47.460;19.016;2023-04-21T10:13:01;100231.31;;;21.47;31.70
58757;BME280;44527;47.460;19.016;2023-04-21T10:16:05;100227.28;;;21.04;30.95
58757;BME280;44527;47.460;19.016;2023-04-21T10:19:25;100223.53;;;20.74;32.59
58757;BME280;44527;47.460;19.016;2023-04-21T10:22:28;100216.03;;;20.44;32.28
58757;BME280;44527;47.460;19.016;2023-04-21T10:25:30;100216.41;;;20.58;31.98
58757;BME280;44527;47.460;19.016;2023-04-21T10:28:40;100213.34;;;20.69;34.62
58757;BME280;44527;47.460;19.016;2023-04-21T10:34:45;100210.00;;;20.83;31.11
58757;BME280;44527;47.460;19.016;2023-04-21T10:37:48;100207.53;;;20.82;33.65
58757;BME280;44527;47.460;19.016;2023-04-21T10:40:53;100192.06;;;20.53;33.18
58757;BME280;44527;47.460;19.016;2023-04-21T10:44:29;100199.25;;;20.52;32.45
58757;BME280;44527;47.460;19.016;2023-04-21T10:47:27;100194.41;;;19.98;33.15
58757;BME280;44527;47.460;19.016;2023-04-21T10:50:29;100192.75;;;19.97;34.73
58757;BME280;44527;47.460;19.016;2023-04-21T10:53:42;100182.75;;;20.00;32.80
58757;BME280;44527;47.460;19.016;2023-04-21T10:56:45;100178.06;;;19.77;33.84
58757;BME280;44527;47.460;19.016;2023-04-21T10:59:47;100181.09;;;19.90;34.38
58757;BME280;44527;47.460;19.016;2023-04-21T11:02:54;100183.59;;;20.08;34.17
58757;BME280;44527;47.460;19.016;2023-04-21T11:05:57;100184.06;;;20.20;32.35
58757;BME280;44527;47.460;19.016;2023-04-21T11:08:59;100180.41;;;20.37;32.91
58757;BME280;44527;47.460;19.016;2023-04-21T11:12:03;100180.16;;;20.88;32.66
58757;BME280;44527;47.460;19.016;2023-04-21T11:15:09;100174.00;;;20.79;31.33
58757;BME280;44527;47.460;19.016;2023-04-21T11:18:13;100177.56;;;20.63;32.70
58757;BME280;44527;47.460;19.016;2023-04-21T11:21:16;100178.91;;;20.43;34.23
58757;BME280;44527;47.460;19.016;2023-04-21T11:24:23;100169.56;;;20.47;32.65
58757;BME280;44527;47.460;19.016;2023-04-21T11:27:25;100168.41;;;20.25;34.67
58757;BME280;44527;47.460;19.016;2023-04-21T11:30:31;100171.06;;;20.41;32.65
58757;BME280;44527;47.460;19.016;2023-04-21T11:33:36;100166.44;;;20.27;33.92
58757;BME280;44527;47.460;19.016;2023-04-21T11:36:39;100167.94;;;20.30;33.12
58757;BME280;44527;47.460;19.016;2023-04-21T11:39:42;100163.25;;;20.32;31.59
58757;BME280;44527;47.460;19.016;2023-04-21T11:42:45;100163.94;;;19.93;33.31
58757;BME280;44527;47.460;19.016;2023-04-21T11:45:48;100165.94;;;19.99;38.26
58757;BME280;44527;47.460;19.016;2023-04-21T11:48:57;100164.44;;;20.05;32.94
58757;BME280;44527;47.460;19.016;2023-04-21T11:51:59;100160.44;;;20.25;33.09
58757;BME280;44527;47.460;19.016;2023-04-21T11:55:05;100161.44;;;20.16;32.61
58757;BME280;44527;47.460;19.016;2023-04-21T11:58:07;100159.44;;;19.85;33.97
58757;BME280;44527;47.460;19.016;2023-04-21T12:01:10;100149.31;;;19.81;33.18
58757;BME280;44527;47.460;19.016;2023-04-21T12:04:15;100148.44;;;19.80;34.43
58757;BME280;44527;47.460;19.016;2023-04-21T12:07:21;100149.94;;;20.07;33.16
58757;BME280;44527;47.460;19.016;2023-04-21T12:10:23;100146.59;;;20.13;32.61
58757;BME280;44527;47.460;19.016;2023-04-21T12:13:26;100144.78;;;20.30;33.40
58757;BME280;44527;47.460;19.016;2023-04-21T12:16:28;100147.09;;;20.33;33.47
58757;BME280;44527;47.460;19.016;2023-04-21T12:19:35;100143.72;;;20.48;33.42
58757;BME280;44527;47.460;19.016;2023-04-21T12:22:37;100142.09;;;20.30;34.58
58757;BME280;44527;47.460;19.016;2023-04-21T12:25:39;100129.44;;;20.32;34.18
58757;BME280;44527;47.460;19.016;2023-04-21T12:28:43;100135.81;;;20.15;32.77
58757;BME280;44527;47.460;19.016;2023-04-21T12:31:45;100133.44;;;20.28;33.53
58757;BME280;44527;47.460;19.016;2023-04-21T12:34:47;100128.44;;;20.25;33.56
58757;BME280;44527;47.460;19.016;2023-04-21T12:37:49;100135.28;;;20.19;33.79
58757;BME280;44527;47.460;19.016;2023-04-21T12:40:52;100131.28;;;20.07;33.66
58757;BME280;44527;47.460;19.016;2023-04-21T12:43:54;100126.31;;;20.20;33.10
58757;BME280;44527;47.460;19.016;2023-04-21T12:46:56;100130.91;;;20.51;35.27
58757;BME280;44527;47.460;19.016;2023-04-21T12:49:58;100128.63;;;20.24;33.65
58757;BME280;44527;47.460;19.016;2023-04-21T12:53:00;100128.44;;;20.33;34.81
58757;BME280;44527;47.460;19.016;2023-04-21T12:56:03;100137.59;;;20.55;34.79
58757;BME280;44527;47.460;19.016;2023-04-21T12:59:06;100131.41;;;20.38;32.97
58757;BME280;44527;47.460;19.016;2023-04-21T13:02:10;100129.00;;;19.88;34.32
58757;BME280;44527;47.460;19.016;2023-04-21T13:05:13;100116.00;;;19.93;35.88
58757;BME280;44527;47.460;19.016;2023-04-21T13:08:19;100124.50;;;19.88;34.28
58757;BME280;44527;47.460;19.016;2023-04-21T13:11:22;100111.16;;;19.80;36.10
58757;BME280;44527;47.460;19.016;2023-04-21T13:14:24;100123.94;;;19.60;35.87
58757;BME280;44527;47.460;19.016;2023-04-21T13:17:26;100116.00;;;19.68;36.22
58757;BME280;44527;47.460;19.016;2023-04-21T13:20:28;100113.12;;;19.45;35.55
58757;BME280;44527;47.460;19.016;2023-04-21T13:23:31;100119.38;;;19.12;36.58
58757;BME280;44527;47.460;19.016;2023-04-21T13:26:33;100113.44;;;19.26;34.92
58757;BME280;44527;47.460;19.016;2023-04-21T13:29:36;100108.44;;;19.23;35.34
58757;BME280;44527;47.460;19.016;2023-04-21T13:32:38;100110.09;;;19.40;34.51
58757;BME280;44527;47.460;19.016;2023-04-21T13:35:40;100104.25;;;19.20;35.30
58757;BME280;44527;47.460;19.016;2023-04-21T13:38:43;100101.78;;;19.27;36.52
58757;BME280;44527;47.460;19.016;2023-04-21T13:41:45;100107.28;;;19.42;36.05
58757;BME280;44527;47.460;19.016;2023-04-21T13:44:47;100107.12;;;19.51;37.49
58757;BME280;44527;47.460;19.016;2023-04-21T13:47:49;100108.94;;;19.43;36.03
58757;BME280;44527;47.460;19.016;2023-04-21T13:50:52;100100.66;;;19.38;33.71
58757;BME280;44527;47.460;19.016;2023-04-21T13:53:55;100092.66;;;19.38;34.76
58757;BME280;44527;47.460;19.016;2023-04-21T13:56:57;100090.69;;;19.56;36.10
58757;BME280;44527;47.460;19.016;2023-04-21T13:59:59;100086.03;;;19.50;37.51
58757;BME280;44527;47.460;19.016;2023-04-21T14:03:01;100088.72;;;19.66;37.52
58757;BME280;44527;47.460;19.016;2023-04-21T14:06:04;100092.03;;;19.85;36.15
58757;BME280;44527;47.460;19.016;2023-04-21T14:09:06;100088.03;;;20.05;33.02
58757;BME280;44527;47.460;19.016;2023-04-21T14:12:10;100081.84;;;20.13;33.55
58757;BME280;44527;47.460;19.016;2023-04-21T14:15:12;100076.84;;;20.10;35.34
58757;BME280;44527;47.460;19.016;2023-04-21T14:18:15;100080.19;;;20.04;33.93
58757;BME280;44527;47.460;19.016;2023-04-21T14:21:17;100069.56;;;19.79;34.25
58757;BME280;44527;47.460;19.016;2023-04-21T14:24:20;100077.87;;;19.92;35.10
58757;BME280;44527;47.460;19.016;2023-04-21T14:27:26;100069.38;;;20.05;34.20
58757;BME280;44527;47.460;19.016;2023-04-21T14:30:28;100072.19;;;20.04;35.42
58757;BME280;44527;47.460;19.016;2023-04-21T14:33:30;100067.72;;;19.96;32.66
58757;BME280;44527;47.460;19.016;2023-04-21T14:36:35;100073.06;;;19.88;34.82
58757;BME280;44527;47.460;19.016;2023-04-21T14:39:37;100065.38;;;20.01;34.44
58757;BME280;44527;47.460;19.016;2023-04-21T14:42:39;100055.88;;;19.98;34.48
58757;BME280;44527;47.460;19.016;2023-04-21T14:45:42;100062.22;;;19.97;34.14
58757;BME280;44527;47.460;19.016;2023-04-21T14:48:44;100051.53;;;20.14;34.35
58757;BME280;44527;47.460;19.016;2023-04-21T14:51:46;100044.88;;;20.02;33.76
58757;BME280;44527;47.460;19.016;2023-04-21T14:54:50;100055.19;;;20.05;34.78
58757;BME280;44527;47.460;19.016;2023-04-21T14:57:52;100052.75;;;19.87;32.96
58757;BME280;44527;47.460;19.016;2023-04-21T15:00:54;100043.25;;;19.60;34.46
58757;BME280;44527;47.460;19.016;2023-04-21T15:03:57;100051.25;;;19.51;34.90
58757;BME280;44527;47.460;19.016;2023-04-21T15:07:01;100044.75;;;19.54;34.50
58757;BME280;44527;47.460;19.016;2023-04-21T15:10:03;100043.56;;;19.24;34.44
58757;BME280;44527;47.460;19.016;2023-04-21T15:13:05;100037.78;;;19.28;35.28
58757;BME280;44527;47.460;19.016;2023-04-21T15:16:07;100043.75;;;19.31;37.14
58757;BME280;44527;47.460;19.016;2023-04-21T15:19:10;100040.06;;;19.15;34.17
58757;BME280;44527;47.460;19.016;2023-04-21T15:22:12;100037.56;;;19.22;34.26
58757;BME280;44527;47.460;19.016;2023-04-21T15:25:16;100033.91;;;19.06;36.19
58757;BME280;44527;47.460;19.016;2023-04-21T15:28:18;100026.06;;;18.89;35.63
58757;BME280;44527;47.460;19.016;2023-04-21T15:31:20;100025.97;;;18.64;35.89
58757;BME280;44527;47.460;19.016;2023-04-21T15:34:22;100036.19;;;18.51;36.78
58757;BME280;44527;47.460;19.016;2023-04-21T15:37:24;100041.50;;;18.43;38.57
58757;BME280;44527;47.460;19.016;2023-04-21T15:40:26;100028.38;;;18.15;39.39
58757;BME280;44527;47.460;19.016;2023-04-21T15:43:29;100029.25;;;17.89;37.53
58757;BME280;44527;47.460;19.016;2023-04-21T15:46:31;100036.69;;;17.86;39.31
58757;BME280;44527;47.460;19.016;2023-04-21T15:49:35;100026.28;;;17.75;40.48
58757;BME280;44527;47.460;19.016;2023-04-21T15:52:38;100030.19;;;17.62;40.83
58757;BME280;44527;47.460;19.016;2023-04-21T15:55:43;100029.66;;;17.59;40.94
58757;BME280;44527;47.460;19.016;2023-04-21T15:58:45;100017.00;;;17.53;39.88
58757;BME280;44527;47.460;19.016;2023-04-21T16:01:47;100016.25;;;17.60;40.50
58757;BME280;44527;47.460;19.016;2023-04-21T16:04:50;100019.87;;;17.59;41.11
58757;BME280;44527;47.460;19.016;2023-04-21T16:07:53;100017.72;;;17.63;41.97
58757;BME280;44527;47.460;19.016;2023-04-21T16:10:55;100012.28;;;17.64;43.13
58757;BME280;44527;47.460;19.016;2023-04-21T16:13:57;100010.94;;;17.60;42.87
58757;BME280;44527;47.460;19.016;2023-04-21T16:16:59;100005.16;;;17.65;38.66
58757;BME280;44527;47.460;19.016;2023-04-21T16:20:03;100006.59;;;17.59;39.54
58757;BME280;44527;47.460;19.016;2023-04-21T16:23:08;100010.25;;;17.58;42.09
58757;BME280;44527;47.460;19.016;2023-04-21T16:26:11;100007.91;;;17.55;40.76
58757;BME280;44527;47.460;19.016;2023-04-21T16:29:13;100003.03;;;17.51;41.36
58757;BME280;44527;47.460;19.016;2023-04-21T16:32:15;99999.34;;;17.43;39.67
58757;BME280;44527;47.460;19.016;2023-04-21T16:35:17;100002.25;;;17.32;43.11
58757;BME280;44527;47.460;19.016;2023-04-21T16:38:20;100001.38;;;17.23;43.03
58757;BME280;44527;47.460;19.016;2023-04-21T16:41:22;99999.84;;;17.21;41.50
58757;BME280;44527;47.460;19.016;2023-04-21T16:44:24;99999.22;;;17.09;42.56
58757;BME280;44527;47.460;19.016;2023-04-21T16:47:26;100005.75;;;16.97;44.10
58757;BME280;44527;47.460;19.016;2023-04-21T16:50:29;99996.47;;;16.83;42.13
58757;BME280;44527;47.460;19.016;2023-04-21T16:53:31;100001.69;;;16.75;41.33
58757;BME280;44527;47.460;19.016;2023-04-21T16:56:34;99990.47;;;16.63;42.92
58757;BME280;44527;47.460;19.016;2023-04-21T16:59:36;99981.75;;;16.53;44.42
58757;BME280;44527;47.460;19.016;2023-04-21T17:02:38;99992.38;;;16.43;43.82
58757;BME280;44527;47.460;19.016;2023-04-21T17:05:41;99990.34;;;16.27;43.43
58757;BME280;44527;47.460;19.016;2023-04-21T17:08:43;99992.94;;;16.19;45.12
58757;BME280;44527;47.460;19.016;2023-04-21T17:11:45;99997.56;;;16.07;46.09
58757;BME280;44527;47.460;19.016;2023-04-21T17:14:47;99989.38;;;16.01;47.00
58757;BME280;44527;47.460;19.016;2023-04-21T17:17:50;99996.50;;;15.91;46.75
58757;BME280;44527;47.460;19.016;2023-04-21T17:20:52;99993.87;;;15.81;47.53
58757;BME280;44527;47.460;19.016;2023-04-21T17:23:54;99994.72;;;15.72;47.73
58757;BME280;44527;47.460;19.016;2023-04-21T17:26:56;99997.38;;;15.62;48.68
58757;BME280;44527;47.460;19.016;2023-04-21T17:29:59;99990.00;;;15.56;49.42
58757;BME280;44527;47.460;19.016;2023-04-21T17:33:01;99991.25;;;15.42;49.40
58757;BME280;44527;47.460;19.016;2023-04-21T17:36:18;99987.66;;;15.24;48.81
58757;BME280;44527;47.460;19.016;2023-04-21T17:39:20;99997.84;;;15.19;49.78
58757;BME280;44527;47.460;19.016;2023-04-21T17:42:22;99992.53;;;15.09;50.12
58757;BME280;44527;47.460;19.016;2023-04-21T17:45:24;100000.19;;;15.02;50.46
58757;BME280;44527;47.460;19.016;2023-04-21T17:48:26;100003.53;;;14.94;51.46
58757;BME280;44527;47.460;19.016;2023-04-21T17:51:28;100010.47;;;14.86;49.92
58757;BME280;44527;47.460;19.016;2023-04-21T17:54:31;100000.56;;;14.78;50.58